sensor_id;sensor_type;location;lat;lon;timestamp;P1;durP1;ratioP1;P2;durP2;ratioP2
56667;SDS011;42542;48.360;10.958;2023-04-25T00:02:22;8.80;;;3.00;;
56667;SDS011;42542;48.360;10.958;2023-04-25T00:05:24;8.40;;;2.80;;
56667;SDS011;42542;48.360;10.958;2023-04-25T00:08:27;9.73;;;3.83;;
56667;SDS011;42542;48.360;10.958;2023-04-25T00:11:33;7.85;;;2.70;;
56667;SDS011;42542;48.360;10.958;2023-04-25T00:14:38;9.33;;;3.23;;
56667;SDS011;42542;48.360;10.958;2023-04-25T00:17:41;12.63;;;3.35;;
56667;SDS011;42542;48.360;10.958;2023-04-25T00:20:44;7.80;;;3.03;;
56667;SDS011;42542;48.360;10.958;2023-04-25T00:23:47;8.55;;;3.10;;
56667;SDS011;42542;48.360;10.958;2023-04-25T00:26:50;8.00;;;2.90;;
56667;SDS011;42542;48.360;10.958;2023-04-25T00:29:52;8.07;;;3.30;;
56667;SDS011;42542;48.360;10.958;2023-04-25T00:33:01;8.35;;;2.85;;
56667;SDS011;42542;48.360;10.958;2023-04-25T00:36:06;10.13;;;3.10;;
56667;SDS011;42542;48.360;10.958;2023-04-25T00:39:10;8.10;;;3.15;;
56667;SDS011;42542;48.360;10.958;2023-04-25T00:42:13;8.10;;;2.90;;
56667;SDS011;42542;48.360;10.958;2023-04-25T00:45:15;7.73;;;3.00;;
56667;SDS011;42542;48.360;10.958;2023-04-25T00:48:20;7.93;;;3.20;;
56667;SDS011;42542;48.360;10.958;2023-04-25T00:51:24;8.55;;;2.90;;
56667;SDS011;42542;48.360;10.958;2023-04-25T00:54:29;9.02;;;3.20;;
56667;SDS011;42542;48.360;10.958;2023-04-25T00:57:32;8.15;;;3.28;;
56667;SDS011;42542;48.360;10.958;2023-04-25T01:00:36;8.77;;;3.50;;
56667;SDS011;42542;48.360;10.958;2023-04-25T01:03:38;7.47;;;3.00;;
56667;SDS011;42542;48.360;10.958;2023-04-25T01:06:44;8.40;;;3.30;;
56667;SDS011;42542;48.360;10.958;2023-04-25T01:09:50;8.95;;;3.63;;
56667;SDS011;42542;48.360;10.958;2023-04-25T01:12:53;8.65;;;3.13;;
56667;SDS011;42542;48.360;10.958;2023-04-25T01:15:58;9.50;;;3.40;;
56667;SDS011;42542;48.360;10.958;2023-04-25T01:19:00;8.45;;;3.13;;
56667;SDS011;42542;48.360;10.958;2023-04-25T01:22:04;8.63;;;3.30;;
56667;SDS011;42542;48.360;10.958;2023-04-25T01:25:07;8.38;;;3.28;;
56667;SDS011;42542;48.360;10.958;2023-04-25T01:28:11;7.65;;;3.05;;
56667;SDS011;42542;48.360;10.958;2023-04-25T01:31:13;8.85;;;2.95;;
56667;SDS011;42542;48.360;10.958;2023-04-25T01:34:18;8.10;;;3.33;;
56667;SDS011;42542;48.360;10.958;2023-04-25T01:37:23;8.80;;;3.10;;
56667;SDS011;42542;48.360;10.958;2023-04-25T01:40:25;9.05;;;3.30;;
56667;SDS011;42542;48.360;10.958;2023-04-25T01:43:30;8.90;;;3.05;;
56667;SDS011;42542;48.360;10.958;2023-04-25T01:46:33;8.13;;;3.10;;
56667;SDS011;42542;48.360;10.958;2023-04-25T01:49:39;9.80;;;3.50;;
56667;SDS011;42542;48.360;10.958;2023-04-25T01:52:41;8.10;;;3.28;;
56667;SDS011;42542;48.360;10.958;2023-04-25T01:55:44;9.65;;;3.50;;
56667;SDS011;42542;48.360;10.958;2023-04-25T01:58:49;7.57;;;3.00;;
56667;SDS011;42542;48.360;10.958;2023-04-25T02:01:55;7.38;;;3.15;;
56667;SDS011;42542;48.360;10.958;2023-04-25T02:05:02;8.85;;;3.35;;
56667;SDS011;42542;48.360;10.958;2023-04-25T02:08:08;8.53;;;2.97;;
56667;SDS011;42542;48.360;10.958;2023-04-25T02:11:11;9.38;;;3.30;;
56667;SDS011;42542;48.360;10.958;2023-04-25T02:14:19;7.93;;;3.25;;
56667;SDS011;42542;48.360;10.958;2023-04-25T02:17:32;8.00;;;3.20;;
56667;SDS011;42542;48.360;10.958;2023-04-25T02:20:36;8.02;;;3.10;;
56667;SDS011;42542;48.360;10.958;2023-04-25T02:23:38;8.40;;;3.22;;
56667;SDS011;42542;48.360;10.958;2023-04-25T02:26:40;7.80;;;3.03;;
56667;SDS011;42542;48.360;10.958;2023-04-25T02:29:43;8.52;;;3.25;;
56667;SDS011;42542;48.360;10.958;2023-04-25T02:32:47;11.23;;;3.30;;
56667;SDS011;42542;48.360;10.958;2023-04-25T02:35:49;8.32;;;3.13;;
56667;SDS011;42542;48.360;10.958;2023-04-25T02:38:52;9.57;;;3.40;;
56667;SDS011;42542;48.360;10.958;2023-04-25T02:41:55;8.38;;;3.28;;
56667;SDS011;42542;48.360;10.958;2023-04-25T02:44:57;8.27;;;3.15;;
56667;SDS011;42542;48.360;10.958;2023-04-25T02:48:01;8.00;;;3.27;;
56667;SDS011;42542;48.360;10.958;2023-04-25T02:51:07;8.57;;;3.08;;
56667;SDS011;42542;48.360;10.958;2023-04-25T02:54:09;8.50;;;3.38;;
56667;SDS011;42542;48.360;10.958;2023-04-25T02:57:16;9.63;;;3.67;;
56667;SDS011;42542;48.360;10.958;2023-04-25T03:00:18;8.57;;;3.33;;
56667;SDS011;42542;48.360;10.958;2023-04-25T03:03:21;8.48;;;3.10;;
56667;SDS011;42542;48.360;10.958;2023-04-25T03:06:24;10.73;;;3.25;;
56667;SDS011;42542;48.360;10.958;2023-04-25T03:09:27;8.83;;;3.17;;
56667;SDS011;42542;48.360;10.958;2023-04-25T03:12:30;8.45;;;3.17;;
56667;SDS011;42542;48.360;10.958;2023-04-25T03:15:32;8.90;;;3.10;;
56667;SDS011;42542;48.360;10.958;2023-04-25T03:18:33;8.63;;;3.20;;
56667;SDS011;42542;48.360;10.958;2023-04-25T03:21:37;7.38;;;2.83;;
56667;SDS011;42542;48.360;10.958;2023-04-25T03:24:39;8.82;;;3.08;;
56667;SDS011;42542;48.360;10.958;2023-04-25T03:27:41;10.00;;;3.13;;
56667;SDS011;42542;48.360;10.958;2023-04-25T03:30:43;8.27;;;2.85;;
56667;SDS011;42542;48.360;10.958;2023-04-25T03:33:46;11.57;;;3.40;;
56667;SDS011;42542;48.360;10.958;2023-04-25T03:36:48;9.23;;;3.22;;
56667;SDS011;42542;48.360;10.958;2023-04-25T03:39:53;10.00;;;3.23;;
56667;SDS011;42542;48.360;10.958;2023-04-25T03:42:57;8.07;;;3.17;;
56667;SDS011;42542;48.360;10.958;2023-04-25T03:45:59;8.30;;;3.22;;
56667;SDS011;42542;48.360;10.958;2023-04-25T03:49:01;8.63;;;3.30;;
56667;SDS011;42542;48.360;10.958;2023-04-25T03:52:24;8.60;;;3.30;;
56667;SDS011;42542;48.360;10.958;2023-04-25T03:55:27;10.27;;;3.67;;
56667;SDS011;42542;48.360;10.958;2023-04-25T03:58:30;9.07;;;3.38;;
56667;SDS011;42542;48.360;10.958;2023-04-25T04:01:33;10.25;;;3.58;;
56667;SDS011;42542;48.360;10.958;2023-04-25T04:04:35;8.18;;;2.90;;
56667;SDS011;42542;48.360;10.958;2023-04-25T04:07:38;7.72;;;3.22;;
56667;SDS011;42542;48.360;10.958;2023-04-25T04:10:45;8.70;;;3.20;;
56667;SDS011;42542;48.360;10.958;2023-04-25T04:13:48;8.75;;;3.22;;
56667;SDS011;42542;48.360;10.958;2023-04-25T04:16:52;8.25;;;3.30;;
56667;SDS011;42542;48.360;10.958;2023-04-25T04:19:55;8.23;;;2.87;;
56667;SDS011;42542;48.360;10.958;2023-04-25T04:23:03;7.82;;;3.08;;
56667;SDS011;42542;48.360;10.958;2023-04-25T04:26:04;11.00;;;3.30;;
56667;SDS011;42542;48.360;10.958;2023-04-25T04:29:22;8.05;;;2.90;;
56667;SDS011;42542;48.360;10.958;2023-04-25T04:32:35;10.18;;;3.47;;
56667;SDS011;42542;48.360;10.958;2023-04-25T04:35:38;8.43;;;3.35;;
56667;SDS011;42542;48.360;10.958;2023-04-25T04:38:41;8.45;;;2.90;;
56667;SDS011;42542;48.360;10.958;2023-04-25T04:41:52;7.90;;;2.87;;
56667;SDS011;42542;48.360;10.958;2023-04-25T04:45:27;10.27;;;3.30;;
56667;SDS011;42542;48.360;10.958;2023-04-25T04:48:54;9.07;;;2.92;;
56667;SDS011;42542;48.360;10.958;2023-04-25T04:52:26;8.73;;;2.60;;
56667;SDS011;42542;48.360;10.958;2023-04-25T04:55:47;8.50;;;2.55;;
56667;SDS011;42542;48.360;10.958;2023-04-25T04:59:06;6.55;;;2.30;;
56667;SDS011;42542;48.360;10.958;2023-04-25T05:02:15;8.70;;;2.58;;
56667;SDS011;42542;48.360;10.958;2023-04-25T05:05:34;6.43;;;2.40;;
56667;SDS011;42542;48.360;10.958;2023-04-25T05:09:04;7.90;;;2.63;;
56667;SDS011;42542;48.360;10.958;2023-04-25T05:12:22;7.32;;;2.40;;
56667;SDS011;42542;48.360;10.958;2023-04-25T05:15:31;8.80;;;2.63;;
56667;SDS011;42542;48.360;10.958;2023-04-25T05:18:48;6.45;;;2.20;;
56667;SDS011;42542;48.360;10.958;2023-04-25T05:22:09;8.35;;;2.50;;
56667;SDS011;42542;48.360;10.958;2023-04-25T05:25:32;6.13;;;2.20;;
56667;SDS011;42542;48.360;10.958;2023-04-25T05:28:47;5.88;;;2.13;;
56667;SDS011;42542;48.360;10.958;2023-04-25T05:32:08;7.80;;;2.42;;
56667;SDS011;42542;48.360;10.958;2023-04-25T05:35:12;6.40;;;2.60;;
56667;SDS011;42542;48.360;10.958;2023-04-25T05:38:19;7.22;;;2.40;;
56667;SDS011;42542;48.360;10.958;2023-04-25T05:41:52;8.32;;;2.40;;
56667;SDS011;42542;48.360;10.958;2023-04-25T05:45:12;8.55;;;2.50;;
56667;SDS011;42542;48.360;10.958;2023-04-25T05:48:32;7.10;;;2.30;;
56667;SDS011;42542;48.360;10.958;2023-04-25T05:52:13;7.00;;;2.58;;
56667;SDS011;42542;48.360;10.958;2023-04-25T05:55:31;7.88;;;2.33;;
56667;SDS011;42542;48.360;10.958;2023-04-25T05:58:35;9.37;;;2.60;;
56667;SDS011;42542;48.360;10.958;2023-04-25T06:01:38;7.15;;;2.63;;
56667;SDS011;42542;48.360;10.958;2023-04-25T06:04:42;7.30;;;2.67;;
56667;SDS011;42542;48.360;10.958;2023-04-25T06:07:45;8.73;;;2.60;;
56667;SDS011;42542;48.360;10.958;2023-04-25T06:10:48;6.63;;;2.60;;
56667;SDS011;42542;48.360;10.958;2023-04-25T06:13:50;10.52;;;2.60;;
56667;SDS011;42542;48.360;10.958;2023-04-25T06:16:56;7.60;;;2.60;;
56667;SDS011;42542;48.360;10.958;2023-04-25T06:20:01;7.67;;;2.53;;
56667;SDS011;42542;48.360;10.958;2023-04-25T06:23:08;9.57;;;2.60;;
56667;SDS011;42542;48.360;10.958;2023-04-25T06:26:18;9.05;;;2.80;;
56667;SDS011;42542;48.360;10.958;2023-04-25T06:29:21;7.37;;;2.13;;
56667;SDS011;42542;48.360;10.958;2023-04-25T06:32:26;9.68;;;2.80;;
56667;SDS011;42542;48.360;10.958;2023-04-25T06:35:32;9.25;;;2.60;;
56667;SDS011;42542;48.360;10.958;2023-04-25T06:38:34;7.22;;;2.20;;
56667;SDS011;42542;48.360;10.958;2023-04-25T06:41:41;6.88;;;2.45;;
56667;SDS011;42542;48.360;10.958;2023-04-25T06:45:03;6.78;;;2.15;;
56667;SDS011;42542;48.360;10.958;2023-04-25T06:48:08;6.85;;;2.30;;
56667;SDS011;42542;48.360;10.958;2023-04-25T06:51:10;8.40;;;2.33;;
56667;SDS011;42542;48.360;10.958;2023-04-25T06:54:14;6.75;;;2.20;;
56667;SDS011;42542;48.360;10.958;2023-04-25T06:57:25;7.85;;;2.70;;
56667;SDS011;42542;48.360;10.958;2023-04-25T07:00:30;6.97;;;2.30;;
56667;SDS011;42542;48.360;10.958;2023-04-25T07:03:33;6.65;;;2.08;;
56667;SDS011;42542;48.360;10.958;2023-04-25T07:06:42;5.82;;;1.90;;
56667;SDS011;42542;48.360;10.958;2023-04-25T07:09:46;6.68;;;1.90;;
56667;SDS011;42542;48.360;10.958;2023-04-25T07:12:49;7.57;;;2.10;;
56667;SDS011;42542;48.360;10.958;2023-04-25T07:15:55;7.22;;;2.20;;
56667;SDS011;42542;48.360;10.958;2023-04-25T07:18:58;8.00;;;2.35;;
56667;SDS011;42542;48.360;10.958;2023-04-25T07:22:04;5.77;;;1.90;;
56667;SDS011;42542;48.360;10.958;2023-04-25T07:25:10;7.95;;;2.10;;
56667;SDS011;42542;48.360;10.958;2023-04-25T07:28:12;6.30;;;2.05;;
56667;SDS011;42542;48.360;10.958;2023-04-25T07:31:15;6.23;;;2.00;;
56667;SDS011;42542;48.360;10.958;2023-04-25T07:34:18;7.03;;;2.08;;
56667;SDS011;42542;48.360;10.958;2023-04-25T07:37:23;6.15;;;1.88;;
56667;SDS011;42542;48.360;10.958;2023-04-25T07:40:42;6.35;;;2.03;;
56667;SDS011;42542;48.360;10.958;2023-04-25T07:43:46;5.43;;;2.00;;
56667;SDS011;42542;48.360;10.958;2023-04-25T07:46:48;5.70;;;1.80;;
56667;SDS011;42542;48.360;10.958;2023-04-25T07:49:53;5.72;;;1.80;;
56667;SDS011;42542;48.360;10.958;2023-04-25T07:52:56;5.77;;;1.80;;
56667;SDS011;42542;48.360;10.958;2023-04-25T07:56:06;7.40;;;2.13;;
56667;SDS011;42542;48.360;10.958;2023-04-25T07:59:11;7.85;;;2.20;;
56667;SDS011;42542;48.360;10.958;2023-04-25T08:02:16;5.30;;;1.90;;
56667;SDS011;42542;48.360;10.958;2023-04-25T08:05:19;5.80;;;2.00;;
56667;SDS011;42542;48.360;10.958;2023-04-25T08:08:30;6.70;;;2.00;;
56667;SDS011;42542;48.360;10.958;2023-04-25T08:11:34;6.38;;;2.10;;
56667;SDS011;42542;48.360;10.958;2023-04-25T08:14:37;6.15;;;2.20;;
56667;SDS011;42542;48.360;10.958;2023-04-25T08:17:41;7.22;;;2.20;;
56667;SDS011;42542;48.360;10.958;2023-04-25T08:20:44;5.63;;;1.90;;
56667;SDS011;42542;48.360;10.958;2023-04-25T08:23:48;6.87;;;1.80;;
56667;SDS011;42542;48.360;10.958;2023-04-25T08:27:03;7.68;;;1.90;;
56667;SDS011;42542;48.360;10.958;2023-04-25T08:30:06;5.88;;;2.20;;
56667;SDS011;42542;48.360;10.958;2023-04-25T08:33:12;6.07;;;2.00;;
56667;SDS011;42542;48.360;10.958;2023-04-25T08:36:45;6.03;;;1.95;;
56667;SDS011;42542;48.360;10.958;2023-04-25T08:40:07;6.93;;;2.10;;
56667;SDS011;42542;48.360;10.958;2023-04-25T08:43:34;6.07;;;2.20;;
56667;SDS011;42542;48.360;10.958;2023-04-25T08:46:40;6.32;;;1.95;;
56667;SDS011;42542;48.360;10.958;2023-04-25T08:49:57;8.23;;;2.40;;
56667;SDS011;42542;48.360;10.958;2023-04-25T08:53:01;6.72;;;1.90;;
56667;SDS011;42542;48.360;10.958;2023-04-25T08:56:09;9.07;;;2.83;;
56667;SDS011;42542;48.360;10.958;2023-04-25T08:59:15;6.10;;;2.10;;
56667;SDS011;42542;48.360;10.958;2023-04-25T09:02:19;6.32;;;1.92;;
56667;SDS011;42542;48.360;10.958;2023-04-25T09:05:25;6.17;;;1.77;;
56667;SDS011;42542;48.360;10.958;2023-04-25T09:08:28;5.88;;;1.80;;
56667;SDS011;42542;48.360;10.958;2023-04-25T09:11:32;6.03;;;1.70;;
56667;SDS011;42542;48.360;10.958;2023-04-25T09:14:37;5.72;;;1.90;;
56667;SDS011;42542;48.360;10.958;2023-04-25T09:17:57;5.90;;;2.00;;
56667;SDS011;42542;48.360;10.958;2023-04-25T09:21:07;5.80;;;2.10;;
56667;SDS011;42542;48.360;10.958;2023-04-25T09:27:52;6.53;;;1.90;;
56667;SDS011;42542;48.360;10.958;2023-04-25T09:31:01;5.72;;;1.90;;
56667;SDS011;42542;48.360;10.958;2023-04-25T09:34:18;6.97;;;2.03;;
56667;SDS011;42542;48.360;10.958;2023-04-25T09:37:29;7.37;;;2.00;;
56667;SDS011;42542;48.360;10.958;2023-04-25T09:41:00;6.97;;;1.90;;
56667;SDS011;42542;48.360;10.958;2023-04-25T09:44:14;6.18;;;1.80;;
56667;SDS011;42542;48.360;10.958;2023-04-25T09:47:18;7.15;;;1.92;;
56667;SDS011;42542;48.360;10.958;2023-04-25T09:50:23;6.00;;;1.70;;
56667;SDS011;42542;48.360;10.958;2023-04-25T09:53:38;6.75;;;2.03;;
56667;SDS011;42542;48.360;10.958;2023-04-25T09:57:14;7.35;;;2.17;;
56667;SDS011;42542;48.360;10.958;2023-04-25T10:00:18;6.57;;;2.03;;
56667;SDS011;42542;48.360;10.958;2023-04-25T10:03:22;6.88;;;1.80;;
56667;SDS011;42542;48.360;10.958;2023-04-25T10:06:48;6.78;;;2.42;;
56667;SDS011;42542;48.360;10.958;2023-04-25T10:09:54;6.82;;;2.28;;
56667;SDS011;42542;48.360;10.958;2023-04-25T10:13:03;5.73;;;2.00;;
56667;SDS011;42542;48.360;10.958;2023-04-25T10:16:10;5.15;;;1.67;;
56667;SDS011;42542;48.360;10.958;2023-04-25T10:19:13;5.10;;;1.50;;
56667;SDS011;42542;48.360;10.958;2023-04-25T10:22:20;5.80;;;1.73;;
56667;SDS011;42542;48.360;10.958;2023-04-25T10:25:34;5.60;;;1.40;;
56667;SDS011;42542;48.360;10.958;2023-04-25T10:32:11;4.80;;;1.20;;
56667;SDS011;42542;48.360;10.958;2023-04-25T10:35:17;4.93;;;1.20;;
56667;SDS011;42542;48.360;10.958;2023-04-25T10:38:21;4.90;;;1.20;;
56667;SDS011;42542;48.360;10.958;2023-04-25T10:41:23;4.68;;;1.10;;
56667;SDS011;42542;48.360;10.958;2023-04-25T10:44:28;4.00;;;1.20;;
56667;SDS011;42542;48.360;10.958;2023-04-25T10:47:35;4.40;;;1.27;;
56667;SDS011;42542;48.360;10.958;2023-04-25T10:50:40;6.15;;;1.60;;
56667;SDS011;42542;48.360;10.958;2023-04-25T10:54:01;4.85;;;1.50;;
56667;SDS011;42542;48.360;10.958;2023-04-25T10:57:25;5.20;;;1.20;;
56667;SDS011;42542;48.360;10.958;2023-04-25T11:00:54;7.40;;;1.38;;
56667;SDS011;42542;48.360;10.958;2023-04-25T11:03:58;5.85;;;1.63;;
56667;SDS011;42542;48.360;10.958;2023-04-25T11:10:50;4.97;;;1.60;;
56667;SDS011;42542;48.360;10.958;2023-04-25T11:13:53;6.55;;;1.88;;
56667;SDS011;42542;48.360;10.958;2023-04-25T11:16:56;6.63;;;1.90;;
56667;SDS011;42542;48.360;10.958;2023-04-25T11:20:03;5.15;;;1.75;;
56667;SDS011;42542;48.360;10.958;2023-04-25T11:23:09;5.50;;;1.77;;
56667;SDS011;42542;48.360;10.958;2023-04-25T11:26:12;5.53;;;1.90;;
56667;SDS011;42542;48.360;10.958;2023-04-25T11:29:16;5.72;;;2.10;;
56667;SDS011;42542;48.360;10.958;2023-04-25T11:32:18;6.25;;;2.10;;
56667;SDS011;42542;48.360;10.958;2023-04-25T11:35:25;6.28;;;2.15;;
56667;SDS011;42542;48.360;10.958;2023-04-25T11:38:27;4.57;;;1.40;;
56667;SDS011;42542;48.360;10.958;2023-04-25T11:41:30;4.95;;;1.20;;
56667;SDS011;42542;48.360;10.958;2023-04-25T11:44:32;5.70;;;1.48;;
56667;SDS011;42542;48.360;10.958;2023-04-25T11:47:35;6.60;;;1.50;;
56667;SDS011;42542;48.360;10.958;2023-04-25T11:50:38;5.93;;;1.80;;
56667;SDS011;42542;48.360;10.958;2023-04-25T11:53:41;5.10;;;1.52;;
56667;SDS011;42542;48.360;10.958;2023-04-25T11:56:44;6.90;;;1.85;;
56667;SDS011;42542;48.360;10.958;2023-04-25T11:59:48;5.38;;;1.88;;
56667;SDS011;42542;48.360;10.958;2023-04-25T12:02:53;6.32;;;1.73;;
56667;SDS011;42542;48.360;10.958;2023-04-25T12:06:02;5.93;;;1.75;;
56667;SDS011;42542;48.360;10.958;2023-04-25T12:09:12;4.63;;;1.30;;
56667;SDS011;42542;48.360;10.958;2023-04-25T12:12:17;5.82;;;1.50;;
56667;SDS011;42542;48.360;10.958;2023-04-25T12:15:24;4.90;;;1.50;;
56667;SDS011;42542;48.360;10.958;2023-04-25T12:18:26;6.30;;;2.00;;
56667;SDS011;42542;48.360;10.958;2023-04-25T12:21:29;7.53;;;2.50;;
56667;SDS011;42542;48.360;10.958;2023-04-25T12:24:33;5.80;;;1.98;;
56667;SDS011;42542;48.360;10.958;2023-04-25T12:27:40;7.75;;;2.28;;
56667;SDS011;42542;48.360;10.958;2023-04-25T12:30:52;5.88;;;2.10;;
56667;SDS011;42542;48.360;10.958;2023-04-25T12:33:59;7.50;;;2.55;;
56667;SDS011;42542;48.360;10.958;2023-04-25T12:37:01;7.18;;;2.20;;
56667;SDS011;42542;48.360;10.958;2023-04-25T12:40:03;6.53;;;1.97;;
56667;SDS011;42542;48.360;10.958;2023-04-25T12:43:06;8.02;;;2.45;;
56667;SDS011;42542;48.360;10.958;2023-04-25T12:46:08;6.43;;;2.10;;
56667;SDS011;42542;48.360;10.958;2023-04-25T12:49:10;6.10;;;1.90;;
56667;SDS011;42542;48.360;10.958;2023-04-25T12:52:18;6.05;;;2.05;;
56667;SDS011;42542;48.360;10.958;2023-04-25T12:55:19;6.82;;;1.98;;
56667;SDS011;42542;48.360;10.958;2023-04-25T12:58:21;4.88;;;1.40;;
56667;SDS011;42542;48.360;10.958;2023-04-25T13:01:26;4.22;;;1.40;;
56667;SDS011;42542;48.360;10.958;2023-04-25T13:04:29;4.10;;;1.10;;
56667;SDS011;42542;48.360;10.958;2023-04-25T13:07:31;3.78;;;0.95;;
56667;SDS011;42542;48.360;10.958;2023-04-25T13:10:36;3.53;;;1.00;;
56667;SDS011;42542;48.360;10.958;2023-04-25T13:13:40;4.07;;;1.10;;
56667;SDS011;42542;48.360;10.958;2023-04-25T13:16:43;3.38;;;0.80;;
56667;SDS011;42542;48.360;10.958;2023-04-25T13:19:45;3.83;;;1.03;;
56667;SDS011;42542;48.360;10.958;2023-04-25T13:22:48;3.65;;;0.85;;
56667;SDS011;42542;48.360;10.958;2023-04-25T13:25:50;4.25;;;0.93;;
56667;SDS011;42542;48.360;10.958;2023-04-25T13:28:52;4.00;;;1.10;;
56667;SDS011;42542;48.360;10.958;2023-04-25T13:31:54;5.05;;;1.33;;
56667;SDS011;42542;48.360;10.958;2023-04-25T13:34:56;4.60;;;1.48;;
56667;SDS011;42542;48.360;10.958;2023-04-25T13:37:58;5.70;;;1.60;;
56667;SDS011;42542;48.360;10.958;2023-04-25T13:41:01;5.90;;;1.83;;
56667;SDS011;42542;48.360;10.958;2023-04-25T13:44:04;5.88;;;2.00;;
56667;SDS011;42542;48.360;10.958;2023-04-25T13:47:06;5.97;;;1.90;;
56667;SDS011;42542;48.360;10.958;2023-04-25T13:50:10;5.50;;;1.80;;
56667;SDS011;42542;48.360;10.958;2023-04-25T13:53:12;6.70;;;2.20;;
56667;SDS011;42542;48.360;10.958;2023-04-25T13:56:15;6.07;;;2.15;;
56667;SDS011;42542;48.360;10.958;2023-04-25T13:59:17;5.75;;;2.17;;
56667;SDS011;42542;48.360;10.958;2023-04-25T14:02:18;5.68;;;2.00;;
56667;SDS011;42542;48.360;10.958;2023-04-25T14:05:22;6.47;;;2.28;;
56667;SDS011;42542;48.360;10.958;2023-04-25T14:08:25;6.22;;;1.90;;
56667;SDS011;42542;48.360;10.958;2023-04-25T14:11:27;5.70;;;2.00;;
56667;SDS011;42542;48.360;10.958;2023-04-25T14:14:29;6.28;;;2.40;;
56667;SDS011;42542;48.360;10.958;2023-04-25T14:17:32;6.38;;;2.13;;
56667;SDS011;42542;48.360;10.958;2023-04-25T14:20:34;5.80;;;1.90;;
56667;SDS011;42542;48.360;10.958;2023-04-25T14:23:38;7.38;;;2.28;;
56667;SDS011;42542;48.360;10.958;2023-04-25T14:26:41;7.30;;;2.30;;
56667;SDS011;42542;48.360;10.958;2023-04-25T14:29:43;6.22;;;2.47;;
56667;SDS011;42542;48.360;10.958;2023-04-25T14:32:47;6.32;;;2.28;;
56667;SDS011;42542;48.360;10.958;2023-04-25T14:35:52;6.35;;;2.15;;
56667;SDS011;42542;48.360;10.958;2023-04-25T14:38:55;7.00;;;2.20;;
56667;SDS011;42542;48.360;10.958;2023-04-25T14:41:58;9.73;;;3.43;;
56667;SDS011;42542;48.360;10.958;2023-04-25T14:45:00;7.60;;;3.10;;
56667;SDS011;42542;48.360;10.958;2023-04-25T14:48:02;7.75;;;2.72;;
56667;SDS011;42542;48.360;10.958;2023-04-25T14:51:04;7.07;;;2.70;;
56667;SDS011;42542;48.360;10.958;2023-04-25T14:54:06;8.65;;;3.33;;
56667;SDS011;42542;48.360;10.958;2023-04-25T14:57:09;15.00;;;5.20;;
56667;SDS011;42542;48.360;10.958;2023-04-25T15:00:11;9.30;;;3.28;;
56667;SDS011;42542;48.360;10.958;2023-04-25T15:03:18;8.77;;;3.13;;
56667;SDS011;42542;48.360;10.958;2023-04-25T15:06:20;9.30;;;2.95;;
56667;SDS011;42542;48.360;10.958;2023-04-25T15:09:23;6.78;;;2.75;;
56667;SDS011;42542;48.360;10.958;2023-04-25T15:12:25;8.27;;;3.27;;
56667;SDS011;42542;48.360;10.958;2023-04-25T15:15:30;8.45;;;3.45;;
56667;SDS011;42542;48.360;10.958;2023-04-25T15:18:31;8.60;;;3.17;;
56667;SDS011;42542;48.360;10.958;2023-04-25T15:21:33;7.33;;;2.90;;
56667;SDS011;42542;48.360;10.958;2023-04-25T15:24:35;7.22;;;2.72;;
56667;SDS011;42542;48.360;10.958;2023-04-25T15:27:39;7.00;;;2.80;;
56667;SDS011;42542;48.360;10.958;2023-04-25T15:30:45;8.25;;;3.50;;
56667;SDS011;42542;48.360;10.958;2023-04-25T15:33:47;8.80;;;3.00;;
56667;SDS011;42542;48.360;10.958;2023-04-25T15:36:49;7.93;;;3.03;;
56667;SDS011;42542;48.360;10.958;2023-04-25T15:43:06;8.37;;;3.10;;
56667;SDS011;42542;48.360;10.958;2023-04-25T15:46:09;9.57;;;3.10;;
56667;SDS011;42542;48.360;10.958;2023-04-25T15:49:10;7.93;;;2.88;;
56667;SDS011;42542;48.360;10.958;2023-04-25T15:52:12;7.50;;;2.90;;
56667;SDS011;42542;48.360;10.958;2023-04-25T15:55:14;9.13;;;3.10;;
56667;SDS011;42542;48.360;10.958;2023-04-25T15:58:17;10.07;;;3.15;;
56667;SDS011;42542;48.360;10.958;2023-04-25T16:01:19;9.63;;;3.85;;
56667;SDS011;42542;48.360;10.958;2023-04-25T16:04:24;10.48;;;4.25;;
56667;SDS011;42542;48.360;10.958;2023-04-25T16:07:28;10.80;;;3.63;;
56667;SDS011;42542;48.360;10.958;2023-04-25T16:10:31;8.15;;;3.55;;
56667;SDS011;42542;48.360;10.958;2023-04-25T16:13:33;8.30;;;3.30;;
56667;SDS011;42542;48.360;10.958;2023-04-25T16:16:35;8.45;;;3.40;;
56667;SDS011;42542;48.360;10.958;2023-04-25T16:19:38;8.32;;;2.97;;
56667;SDS011;42542;48.360;10.958;2023-04-25T16:22:41;7.63;;;2.97;;
56667;SDS011;42542;48.360;10.958;2023-04-25T16:25:45;9.15;;;3.20;;
56667;SDS011;42542;48.360;10.958;2023-04-25T16:28:49;11.32;;;3.38;;
56667;SDS011;42542;48.360;10.958;2023-04-25T16:31:51;8.20;;;3.08;;
56667;SDS011;42542;48.360;10.958;2023-04-25T16:34:54;8.30;;;3.00;;
56667;SDS011;42542;48.360;10.958;2023-04-25T16:37:59;7.30;;;2.80;;
56667;SDS011;42542;48.360;10.958;2023-04-25T16:41:01;8.63;;;3.10;;
56667;SDS011;42542;48.360;10.958;2023-04-25T16:44:03;5.80;;;1.87;;
56667;SDS011;42542;48.360;10.958;2023-04-25T16:47:07;6.40;;;1.92;;
56667;SDS011;42542;48.360;10.958;2023-04-25T16:50:09;8.23;;;2.50;;
56667;SDS011;42542;48.360;10.958;2023-04-25T16:53:13;6.87;;;2.40;;
56667;SDS011;42542;48.360;10.958;2023-04-25T16:56:15;6.35;;;2.20;;
56667;SDS011;42542;48.360;10.958;2023-04-25T16:59:18;6.80;;;2.40;;
56667;SDS011;42542;48.360;10.958;2023-04-25T17:02:19;6.55;;;2.40;;
56667;SDS011;42542;48.360;10.958;2023-04-25T17:05:23;8.07;;;3.00;;
56667;SDS011;42542;48.360;10.958;2023-04-25T17:08:26;8.07;;;3.10;;
56667;SDS011;42542;48.360;10.958;2023-04-25T17:11:32;9.98;;;4.13;;
56667;SDS011;42542;48.360;10.958;2023-04-25T17:14:33;9.70;;;3.90;;
56667;SDS011;42542;48.360;10.958;2023-04-25T17:17:38;10.60;;;4.43;;
56667;SDS011;42542;48.360;10.958;2023-04-25T17:20:40;11.05;;;4.43;;
56667;SDS011;42542;48.360;10.958;2023-04-25T17:23:48;10.80;;;4.23;;
56667;SDS011;42542;48.360;10.958;2023-04-25T17:26:50;9.93;;;4.15;;
56667;SDS011;42542;48.360;10.958;2023-04-25T17:29:52;10.35;;;4.05;;
56667;SDS011;42542;48.360;10.958;2023-04-25T17:32:54;9.48;;;3.97;;
56667;SDS011;42542;48.360;10.958;2023-04-25T17:35:57;9.25;;;3.63;;
56667;SDS011;42542;48.360;10.958;2023-04-25T17:38:59;10.60;;;3.50;;
56667;SDS011;42542;48.360;10.958;2023-04-25T17:42:02;7.53;;;3.20;;
56667;SDS011;42542;48.360;10.958;2023-04-25T17:45:04;8.83;;;3.60;;
56667;SDS011;42542;48.360;10.958;2023-04-25T17:48:08;8.20;;;3.50;;
56667;SDS011;42542;48.360;10.958;2023-04-25T17:51:10;8.90;;;3.63;;
56667;SDS011;42542;48.360;10.958;2023-04-25T17:54:12;14.40;;;5.00;;
56667;SDS011;42542;48.360;10.958;2023-04-25T17:57:15;9.25;;;3.70;;
56667;SDS011;42542;48.360;10.958;2023-04-25T18:00:18;9.23;;;4.05;;
56667;SDS011;42542;48.360;10.958;2023-04-25T18:03:19;9.38;;;3.90;;
56667;SDS011;42542;48.360;10.958;2023-04-25T18:06:22;7.95;;;3.30;;
56667;SDS011;42542;48.360;10.958;2023-04-25T18:09:24;8.52;;;3.38;;
56667;SDS011;42542;48.360;10.958;2023-04-25T18:12:26;7.57;;;3.15;;
56667;SDS011;42542;48.360;10.958;2023-04-25T18:15:28;9.43;;;3.63;;
56667;SDS011;42542;48.360;10.958;2023-04-25T18:18:30;9.07;;;3.78;;
56667;SDS011;42542;48.360;10.958;2023-04-25T18:21:35;12.30;;;4.68;;
56667;SDS011;42542;48.360;10.958;2023-04-25T18:24:36;19.60;;;8.20;;
56667;SDS011;42542;48.360;10.958;2023-04-25T18:27:41;13.45;;;5.90;;
56667;SDS011;42542;48.360;10.958;2023-04-25T18:30:43;10.73;;;4.53;;
56667;SDS011;42542;48.360;10.958;2023-04-25T18:33:47;14.75;;;5.80;;
56667;SDS011;42542;48.360;10.958;2023-04-25T18:36:49;11.07;;;4.30;;